createdAt,value
2022-08-30T00:00:03.926Z,1008.7
2022-08-30T00:01:03.926Z,1008.7
2022-08-30T00:02:04.034Z,1008.7
2022-08-30T00:03:03.984Z,1008.7
2022-08-30T00:04:03.993Z,1008.7
2022-08-30T00:05:03.937Z,1008.7
2022-08-30T00:06:03.939Z,1008.8
2022-08-30T00:07:03.934Z,1008.8
2022-08-30T00:08:03.917Z,1008.7
2022-08-30T00:09:03.917Z,1008.7
2022-08-30T00:10:03.978Z,1008.7
2022-08-30T00:11:03.923Z,1008.7
2022-08-30T00:13:22.401Z,1008.7
2022-08-30T00:13:26.357Z,1008.7
2022-08-30T00:14:03.918Z,1008.7
2022-08-30T00:15:03.916Z,1008.7
2022-08-30T00:16:04.017Z,1008.7
2022-08-30T00:17:03.960Z,1008.7
2022-08-30T00:18:03.916Z,1008.7
2022-08-30T00:19:03.944Z,1008.7
2022-08-30T00:20:04.033Z,1008.7
2022-08-30T00:21:03.954Z,1008.7
2022-08-30T00:22:03.917Z,1008.7
2022-08-30T00:23:03.969Z,1008.7
2022-08-30T00:24:03.922Z,1008.7
2022-08-30T00:25:03.925Z,1008.7
2022-08-30T00:26:04.897Z,1008.7
2022-08-30T00:27:04.183Z,1008.7
2022-08-30T00:28:03.948Z,1008.7
2022-08-30T00:29:03.956Z,1008.7
2022-08-30T00:30:03.921Z,1008.7
2022-08-30T00:31:03.950Z,1008.7
2022-08-30T00:32:03.928Z,1008.6
2022-08-30T00:33:03.941Z,1008.6
2022-08-30T00:34:03.942Z,1008.7
2022-08-30T00:35:03.961Z,1008.7
2022-08-30T00:36:03.939Z,1008.7
2022-08-30T00:37:03.933Z,1008.7
2022-08-30T00:38:03.930Z,1008.7
2022-08-30T00:39:03.920Z,1008.7
2022-08-30T00:40:04.049Z,1008.7
2022-08-30T00:41:03.956Z,1008.7
2022-08-30T00:42:03.976Z,1008.7
2022-08-30T00:43:05.749Z,1008.7
2022-08-30T00:44:03.935Z,1008.7
2022-08-30T00:45:03.930Z,1008.7
2022-08-30T00:46:04.007Z,1008.7
2022-08-30T00:47:03.945Z,1008.7
2022-08-30T00:48:03.931Z,1008.8
2022-08-30T00:49:03.939Z,1008.8
2022-08-30T00:50:03.943Z,1008.8
2022-08-30T00:51:03.945Z,1008.8
2022-08-30T00:52:03.970Z,1008.8
2022-08-30T00:53:03.936Z,1008.8
2022-08-30T00:54:03.936Z,1008.8
2022-08-30T00:55:03.928Z,1008.8
2022-08-30T00:56:03.950Z,1008.8
2022-08-30T00:57:03.962Z,1008.8
2022-08-30T00:58:04.323Z,1008.9
2022-08-30T00:59:03.943Z,1008.9
2022-08-30T01:00:03.941Z,1008.9
2022-08-30T01:01:03.988Z,1008.9
2022-08-30T01:02:04.008Z,1008.9
2022-08-30T01:03:04.063Z,1008.9
2022-08-30T01:04:03.964Z,1008.9
2022-08-30T01:05:03.927Z,1008.9
2022-08-30T01:06:03.953Z,1008.9
2022-08-30T01:07:03.944Z,1008.9
2022-08-30T01:08:03.952Z,1008.8
2022-08-30T01:09:03.931Z,1008.9
2022-08-30T01:10:04.008Z,1008.9
2022-08-30T01:11:03.954Z,1008.9
2022-08-30T01:12:03.963Z,1008.9
2022-08-30T01:13:03.935Z,1008.9
2022-08-30T01:14:03.938Z,1008.9
2022-08-30T01:15:04.014Z,1008.9
2022-08-30T01:16:30.408Z,1008.8
2022-08-30T01:17:04.680Z,1008.8
2022-08-30T01:18:04.094Z,1008.9
2022-08-30T01:19:04.117Z,1008.8
2022-08-30T01:20:04.099Z,1008.8
2022-08-30T01:21:04.114Z,1008.9
2022-08-30T01:22:04.705Z,1008.9
2022-08-30T01:23:04.397Z,1008.8
2022-08-30T01:24:04.460Z,1008.8
2022-08-30T01:25:04.610Z,1008.8
2022-08-30T01:26:04.101Z,1008.8
2022-08-30T01:27:04.102Z,1008.8
2022-08-30T01:28:04.538Z,1008.8
2022-08-30T01:29:04.107Z,1008.8
2022-08-30T01:30:04.101Z,1008.8
2022-08-30T01:31:04.147Z,1008.8
2022-08-30T01:32:04.100Z,1008.8
2022-08-30T01:33:04.112Z,1008.8
2022-08-30T01:34:04.207Z,1008.9
2022-08-30T01:35:04.107Z,1008.8
2022-08-30T01:36:04.311Z,1008.8
2022-08-30T01:37:04.978Z,1008.8
2022-08-30T01:38:04.108Z,1008.8
2022-08-30T01:39:04.115Z,1008.8
2022-08-30T01:40:05.015Z,1008.9
2022-08-30T01:41:04.110Z,1008.8
2022-08-30T01:42:04.346Z,1008.9
2022-08-30T01:43:04.120Z,1008.8
2022-08-30T01:44:04.111Z,1008.8
2022-08-30T01:45:04.104Z,1008.8
2022-08-30T01:46:04.202Z,1008.8
2022-08-30T01:47:04.115Z,1008.8
2022-08-30T01:48:06.742Z,1008.8
2022-08-30T01:49:04.114Z,1008.8
2022-08-30T01:50:04.115Z,1008.8
2022-08-30T01:51:04.124Z,1008.8
2022-08-30T01:52:04.151Z,1008.7
2022-08-30T01:53:04.120Z,1008.8
2022-08-30T01:54:04.366Z,1008.8
2022-08-30T01:55:04.121Z,1008.8
2022-08-30T01:56:04.109Z,1008.8
2022-08-30T01:57:04.829Z,1008.8
2022-08-30T01:58:04.991Z,1008.8
2022-08-30T01:59:04.401Z,1008.8
2022-08-30T02:00:04.568Z,1008.8
2022-08-30T02:01:30.718Z,1008.8
2022-08-30T02:02:04.536Z,1008.8
2022-08-30T02:03:04.657Z,1008.8
2022-08-30T02:04:04.645Z,1008.8
2022-08-30T02:05:05.273Z,1008.8
2022-08-30T02:06:04.616Z,1008.8
2022-08-30T02:07:04.797Z,1008.8
2022-08-30T02:08:04.719Z,1008.7
2022-08-30T02:09:04.808Z,1008.8
2022-08-30T02:10:04.728Z,1008.8
2022-08-30T02:11:04.814Z,1008.8
2022-08-30T02:12:04.638Z,1008.8
2022-08-30T02:13:05.789Z,1008.8
2022-08-30T02:14:04.770Z,1008.8
2022-08-30T02:15:05.472Z,1008.8
2022-08-30T02:16:04.831Z,1008.8
2022-08-30T02:17:04.896Z,1008.8
2022-08-30T02:18:04.913Z,1008.8
2022-08-30T02:19:04.919Z,1008.8
2022-08-30T02:20:04.830Z,1008.8
2022-08-30T02:21:04.805Z,1008.8
2022-08-30T02:22:04.855Z,1008.8
2022-08-30T02:23:04.802Z,1008.8
2022-08-30T02:24:04.847Z,1008.8
2022-08-30T02:25:04.759Z,1008.8
2022-08-30T02:26:04.681Z,1008.8
2022-08-30T02:27:04.761Z,1008.8
2022-08-30T02:28:04.839Z,1008.8
2022-08-30T02:29:04.804Z,1008.8
2022-08-30T02:30:04.768Z,1008.8
2022-08-30T02:31:04.883Z,1008.8
2022-08-30T02:32:04.897Z,1008.7
2022-08-30T02:33:04.923Z,1008.7
2022-08-30T02:34:04.909Z,1008.7
2022-08-30T02:35:04.799Z,1008.7
2022-08-30T02:36:05.162Z,1008.7
2022-08-30T02:37:04.538Z,1008.7
2022-08-30T02:38:05.165Z,1008.7
2022-08-30T02:39:04.761Z,1008.7
2022-08-30T02:40:04.826Z,1008.7
2022-08-30T02:41:04.767Z,1008.7
2022-08-30T02:43:54.775Z,1008.7
2022-08-30T02:44:04.193Z,1008.7
2022-08-30T02:45:04.189Z,1008.7
2022-08-30T02:46:04.340Z,1008.7
2022-08-30T02:47:04.194Z,1008.7
2022-08-30T02:48:05.231Z,1008.7
2022-08-30T02:49:29.913Z,1008.6
2022-08-30T02:50:04.192Z,1008.6
2022-08-30T02:51:04.431Z,1008.6
2022-08-30T02:52:04.824Z,1008.6
2022-08-30T02:53:04.421Z,1008.6
2022-08-30T02:54:04.378Z,1008.6
2022-08-30T02:55:04.476Z,1008.6
2022-08-30T02:56:04.211Z,1008.6
2022-08-30T02:57:04.213Z,1008.6
2022-08-30T02:58:04.590Z,1008.5
2022-08-30T02:59:04.921Z,1008.5
2022-08-30T03:00:04.276Z,1008.5
2022-08-30T03:01:04.299Z,1008.6
2022-08-30T03:02:04.227Z,1008.6
2022-08-30T03:03:04.294Z,1008.6
2022-08-30T03:04:04.318Z,1008.7
2022-08-30T03:05:04.265Z,1008.6
2022-08-30T03:06:04.237Z,1008.6
2022-08-30T03:07:04.279Z,1008.6
2022-08-30T03:08:04.352Z,1008.6
2022-08-30T03:09:04.326Z,1008.5
2022-08-30T03:10:04.451Z,1008.5
2022-08-30T03:11:04.328Z,1008.5
2022-08-30T03:12:04.527Z,1008.5
2022-08-30T03:13:04.940Z,1008.6
2022-08-30T03:14:04.343Z,1008.5
2022-08-30T03:15:04.421Z,1008.5
2022-08-30T03:16:04.501Z,1008.5
2022-08-30T03:17:04.730Z,1008.5
2022-08-30T03:18:04.336Z,1008.5
2022-08-30T03:19:04.422Z,1008.6
2022-08-30T03:20:04.478Z,1008.6
2022-08-30T03:21:05.254Z,1008.6
2022-08-30T03:22:04.359Z,1008.6
2022-08-30T03:23:04.323Z,1008.6
2022-08-30T03:24:04.315Z,1008.5
2022-08-30T03:25:04.507Z,1008.6
2022-08-30T03:26:04.327Z,1008.5
2022-08-30T03:27:04.319Z,1008.5
2022-08-30T03:28:04.332Z,1008.5
2022-08-30T03:29:04.331Z,1008.5
2022-08-30T03:30:04.337Z,1008.5
2022-08-30T03:31:04.317Z,1008.5
2022-08-30T03:32:30.764Z,1008.5
2022-08-30T03:33:05.368Z,1008.5
2022-08-30T03:34:04.572Z,1008.5
2022-08-30T03:35:04.486Z,1008.5
2022-08-30T03:36:04.559Z,1008.5
2022-08-30T03:37:05.253Z,1008.5
2022-08-30T03:38:04.516Z,1008.5
2022-08-30T03:39:04.897Z,1008.5
2022-08-30T03:40:04.876Z,1008.5
2022-08-30T03:41:05.048Z,1008.5
2022-08-30T03:42:04.698Z,1008.5
2022-08-30T03:43:04.977Z,1008.5
2022-08-30T03:44:04.791Z,1008.5
2022-08-30T03:45:04.927Z,1008.5
2022-08-30T03:46:05.000Z,1008.5
2022-08-30T03:47:04.995Z,1008.5
2022-08-30T03:48:05.110Z,1008.4
2022-08-30T03:49:05.000Z,1008.5
2022-08-30T03:50:04.741Z,1008.5
2022-08-30T03:51:06.011Z,1008.5
2022-08-30T03:52:04.988Z,1008.5
2022-08-30T03:53:04.379Z,1008.5
2022-08-30T03:54:04.379Z,1008.5
2022-08-30T03:55:04.386Z,1008.5
2022-08-30T03:56:04.377Z,1008.5
2022-08-30T03:57:04.405Z,1008.5
2022-08-30T03:58:04.399Z,1008.5
2022-08-30T03:59:04.385Z,1008.5
2022-08-30T04:00:04.521Z,1008.5
2022-08-30T04:01:04.419Z,1008.5
2022-08-30T04:02:04.431Z,1008.5
2022-08-30T04:03:05.302Z,1008.5
2022-08-30T04:04:04.643Z,1008.5
2022-08-30T04:05:05.382Z,1008.5
2022-08-30T04:06:04.748Z,1008.5
2022-08-30T04:07:05.281Z,1008.5
2022-08-30T04:08:04.419Z,1008.5
2022-08-30T04:09:04.455Z,1008.5
2022-08-30T04:10:04.983Z,1008.5
2022-08-30T04:11:05.117Z,1008.5
2022-08-30T04:12:04.621Z,1008.5
2022-08-30T04:13:05.384Z,1008.5
2022-08-30T04:14:04.509Z,1008.5
2022-08-30T04:15:04.506Z,1008.5
2022-08-30T04:16:05.133Z,1008.5
2022-08-30T04:17:30.931Z,1008.5
2022-08-30T04:18:05.640Z,1008.5
2022-08-30T04:19:04.729Z,1008.5
2022-08-30T04:20:05.017Z,1008.5
2022-08-30T04:21:04.965Z,1008.5
2022-08-30T04:22:05.036Z,1008.5
2022-08-30T04:23:05.125Z,1008.5
2022-08-30T04:24:05.089Z,1008.6
2022-08-30T04:25:04.900Z,1008.5
2022-08-30T04:26:05.183Z,1008.6
2022-08-30T04:27:05.133Z,1008.6
2022-08-30T04:28:05.263Z,1008.6
2022-08-30T04:29:05.076Z,1008.6
2022-08-30T04:30:05.054Z,1008.6
2022-08-30T04:31:05.103Z,1008.6
2022-08-30T04:32:05.309Z,1008.6
2022-08-30T04:33:05.105Z,1008.6
2022-08-30T04:34:05.179Z,1008.6
2022-08-30T04:35:05.124Z,1008.6
2022-08-30T04:36:05.182Z,1008.6
2022-08-30T04:37:05.216Z,1008.6
2022-08-30T04:38:05.619Z,1008.5
2022-08-30T04:39:05.078Z,1008.5
2022-08-30T04:40:05.177Z,1008.5
2022-08-30T04:41:04.997Z,1008.5
2022-08-30T04:42:04.972Z,1008.5
2022-08-30T04:43:05.148Z,1008.5
2022-08-30T04:44:05.132Z,1008.5
2022-08-30T04:45:04.923Z,1008.5
2022-08-30T04:46:05.246Z,1008.6
2022-08-30T04:47:04.932Z,1008.6
2022-08-30T04:48:04.944Z,1008.6
2022-08-30T04:49:05.115Z,1008.6
2022-08-30T04:50:05.098Z,1008.6
2022-08-30T04:51:05.028Z,1008.6
2022-08-30T04:52:05.276Z,1008.6
2022-08-30T04:53:05.219Z,1008.7
2022-08-30T04:54:05.103Z,1008.7
2022-08-30T04:55:04.911Z,1008.7
2022-08-30T04:56:05.003Z,1008.7
2022-08-30T04:57:04.974Z,1008.7
2022-08-30T04:59:54.844Z,1008.7
2022-08-30T05:00:04.552Z,1008.7
2022-08-30T05:01:04.662Z,1008.7
2022-08-30T05:02:04.720Z,1008.7
2022-08-30T05:03:04.567Z,1008.8
2022-08-30T05:04:04.575Z,1008.7
2022-08-30T05:05:04.641Z,1008.8
2022-08-30T05:06:05.078Z,1008.7
2022-08-30T05:07:04.578Z,1008.7
2022-08-30T05:08:04.676Z,1008.7
2022-08-30T05:09:04.562Z,1008.7
2022-08-30T05:10:09.124Z,1008.7
2022-08-30T05:11:04.573Z,1008.7
2022-08-30T05:12:04.705Z,1008.7
2022-08-30T05:13:04.567Z,1008.7
2022-08-30T05:14:04.613Z,1008.8
2022-08-30T05:15:04.571Z,1008.8
2022-08-30T05:16:04.751Z,1008.8
2022-08-30T05:17:04.588Z,1008.8
2022-08-30T05:18:04.562Z,1008.8
2022-08-30T05:19:04.743Z,1008.8
2022-08-30T05:20:04.584Z,1008.8
2022-08-30T05:21:04.586Z,1008.8
2022-08-30T05:22:04.620Z,1008.9
2022-08-30T05:23:04.579Z,1008.9
2022-08-30T05:24:04.574Z,1008.9
2022-08-30T05:25:05.092Z,1008.9
2022-08-30T05:26:04.577Z,1008.9
2022-08-30T05:27:04.610Z,1008.9
2022-08-30T05:28:04.597Z,1008.9
2022-08-30T05:29:04.713Z,1008.9
2022-08-30T05:30:04.652Z,1008.9
2022-08-30T05:31:04.657Z,1009.0
2022-08-30T05:32:04.587Z,1009.0
2022-08-30T05:33:04.574Z,1008.9
2022-08-30T05:34:04.572Z,1009.0
2022-08-30T05:35:04.581Z,1009.0
2022-08-30T05:36:04.915Z,1009.0
2022-08-30T05:37:04.900Z,1009.0
2022-08-30T05:38:04.579Z,1009.1
2022-08-30T05:39:05.830Z,1009.1
2022-08-30T05:40:04.582Z,1009.1
2022-08-30T05:41:08.391Z,1009.1
2022-08-30T05:42:04.577Z,1009.1
2022-08-30T05:43:05.364Z,1009.2
2022-08-30T05:44:04.666Z,1009.1
2022-08-30T05:45:31.005Z,1009.0
2022-08-30T05:46:03.736Z,1009.1
2022-08-30T05:47:03.754Z,1009.1
2022-08-30T05:48:03.767Z,1009.0
2022-08-30T05:49:03.748Z,1009.1
2022-08-30T05:50:03.863Z,1009.0
2022-08-30T05:51:03.734Z,1009.0
2022-08-30T05:52:03.759Z,1009.0
2022-08-30T05:53:03.723Z,1009.0
2022-08-30T05:54:03.971Z,1009.0
2022-08-30T05:55:05.312Z,1009.0
2022-08-30T05:56:03.801Z,1009.0
2022-08-30T05:57:03.743Z,1009.0
2022-08-30T05:58:03.934Z,1009.0
2022-08-30T05:59:03.751Z,1009.0
2022-08-30T06:00:03.720Z,1009.0
2022-08-30T06:01:03.787Z,1009.0
2022-08-30T06:02:03.939Z,1009.1
2022-08-30T06:03:03.812Z,1009.1
2022-08-30T06:04:04.315Z,1009.1
2022-08-30T06:05:03.744Z,1009.1
2022-08-30T06:06:03.742Z,1009.1
2022-08-30T06:07:03.769Z,1009.1
2022-08-30T06:08:03.782Z,1009.1
2022-08-30T06:09:05.256Z,1009.0
2022-08-30T06:10:03.760Z,1009.1
2022-08-30T06:11:03.753Z,1009.0
2022-08-30T06:12:03.758Z,1009.0
2022-08-30T06:13:03.753Z,1009.0
2022-08-30T06:14:03.808Z,1009.0
2022-08-30T06:15:03.724Z,1008.9
2022-08-30T06:16:03.812Z,1009.0
2022-08-30T06:17:03.756Z,1009.0
2022-08-30T06:18:03.742Z,1008.9
2022-08-30T06:19:03.735Z,1009.0
2022-08-30T06:20:03.893Z,1009.0
2022-08-30T06:21:03.748Z,1009.0
2022-08-30T06:22:03.746Z,1009.0
2022-08-30T06:23:03.799Z,1009.0
2022-08-30T06:24:04.929Z,1009.0
2022-08-30T06:25:03.782Z,1009.0
2022-08-30T06:26:03.807Z,1009.0
2022-08-30T06:27:03.787Z,1009.0
2022-08-30T06:28:04.720Z,1009.1
2022-08-30T06:29:03.763Z,1009.1
2022-08-30T06:30:03.818Z,1009.1
2022-08-30T06:31:03.763Z,1009.0
2022-08-30T06:32:03.773Z,1009.0
2022-08-30T06:34:37.657Z,1009.1
2022-08-30T06:35:04.373Z,1009.0
2022-08-30T06:36:06.005Z,1009.0
2022-08-30T06:37:04.371Z,1009.0
2022-08-30T06:38:04.434Z,1009.0
2022-08-30T06:39:04.555Z,1009.0
2022-08-30T06:40:04.399Z,1009.1
2022-08-30T06:41:04.395Z,1009.0
2022-08-30T06:42:04.378Z,1009.0
2022-08-30T06:43:04.358Z,1009.0
2022-08-30T06:44:04.474Z,1009.0
2022-08-30T06:45:10.733Z,1009.0
2022-08-30T06:46:04.503Z,1009.0
2022-08-30T06:47:04.394Z,1009.0
2022-08-30T06:48:04.376Z,1009.0
2022-08-30T06:49:04.423Z,1009.0
2022-08-30T06:50:04.383Z,1009.0
2022-08-30T06:51:04.382Z,1009.1
2022-08-30T06:52:04.381Z,1009.1
2022-08-30T06:53:04.393Z,1009.1
2022-08-30T06:54:04.383Z,1009.1
2022-08-30T06:55:04.438Z,1009.1
2022-08-30T06:56:04.394Z,1009.1
2022-08-30T06:57:04.365Z,1009.1
2022-08-30T06:58:04.387Z,1009.1
2022-08-30T06:59:04.373Z,1009.1
2022-08-30T07:00:04.389Z,1009.1
2022-08-30T07:01:04.445Z,1009.1
2022-08-30T07:02:04.468Z,1009.1
2022-08-30T07:03:04.418Z,1009.1
2022-08-30T07:04:04.384Z,1009.2
2022-08-30T07:05:05.408Z,1009.2
2022-08-30T07:06:04.390Z,1009.1
2022-08-30T07:07:04.470Z,1009.2
2022-08-30T07:08:04.399Z,1009.2
2022-08-30T07:09:05.423Z,1009.2
2022-08-30T07:10:04.388Z,1009.2
2022-08-30T07:11:04.379Z,1009.2
2022-08-30T07:12:05.298Z,1009.2
2022-08-30T07:13:04.439Z,1009.2
2022-08-30T07:14:04.385Z,1009.2
2022-08-30T07:15:04.411Z,1009.2
2022-08-30T07:16:04.420Z,1009.2
2022-08-30T07:17:04.403Z,1009.2
2022-08-30T07:18:04.399Z,1009.2
2022-08-30T07:19:04.426Z,1009.2
2022-08-30T07:20:04.385Z,1009.2
2022-08-30T07:21:04.391Z,1009.2
2022-08-30T07:22:04.401Z,1009.2
2022-08-30T07:23:04.401Z,1009.2
2022-08-30T07:24:04.415Z,1009.2
2022-08-30T07:25:04.445Z,1009.2
2022-08-30T07:26:11.438Z,1009.2
2022-08-30T07:27:04.434Z,1009.2
2022-08-30T07:28:04.475Z,1009.3
2022-08-30T07:29:04.432Z,1009.2
2022-08-30T07:30:04.477Z,1009.3
2022-08-30T07:31:04.507Z,1009.2
2022-08-30T07:32:04.455Z,1009.3
2022-08-30T07:33:04.447Z,1009.2
2022-08-30T07:34:04.338Z,1009.2
2022-08-30T07:35:04.374Z,1009.3
2022-08-30T07:36:04.516Z,1009.3
2022-08-30T07:37:04.359Z,1009.2
2022-08-30T07:38:04.382Z,1009.2
2022-08-30T07:39:05.332Z,1009.2
2022-08-30T07:40:04.978Z,1009.3
2022-08-30T07:41:04.330Z,1009.2
2022-08-30T07:42:04.340Z,1009.3
2022-08-30T07:43:04.364Z,1009.3
2022-08-30T07:44:04.339Z,1009.3
2022-08-30T07:45:04.341Z,1009.3
2022-08-30T07:46:04.417Z,1009.3
2022-08-30T07:47:04.348Z,1009.3
2022-08-30T07:48:04.334Z,1009.3
2022-08-30T07:49:04.584Z,1009.3
2022-08-30T07:50:04.343Z,1009.3
2022-08-30T07:51:05.379Z,1009.3
2022-08-30T07:52:04.348Z,1009.3
2022-08-30T07:53:07.929Z,1009.3
2022-08-30T07:54:04.374Z,1009.3
2022-08-30T07:55:04.401Z,1009.3
2022-08-30T07:56:04.857Z,1009.3
2022-08-30T07:57:04.343Z,1009.3
2022-08-30T07:58:04.369Z,1009.3
2022-08-30T07:59:04.350Z,1009.3
2022-08-30T08:00:04.413Z,1009.3
2022-08-30T08:01:04.363Z,1009.3
2022-08-30T08:02:04.456Z,1009.3
2022-08-30T08:03:04.364Z,1009.2
2022-08-30T08:04:04.358Z,1009.2
2022-08-30T08:05:04.343Z,1009.2
2022-08-30T08:06:04.348Z,1009.2
2022-08-30T08:07:04.363Z,1009.2
2022-08-30T08:08:04.381Z,1009.3
2022-08-30T08:09:04.376Z,1009.3
2022-08-30T08:10:04.377Z,1009.3
2022-08-30T08:11:04.421Z,1009.3
2022-08-30T08:12:04.353Z,1009.2
2022-08-30T08:13:04.371Z,1009.3
2022-08-30T08:14:04.423Z,1009.3
2022-08-30T08:15:06.761Z,1009.3
2022-08-30T08:16:04.424Z,1009.3
2022-08-30T08:17:04.336Z,1009.3
2022-08-30T08:18:04.392Z,1009.3
2022-08-30T08:19:04.346Z,1009.2
2022-08-30T08:20:04.375Z,1009.2
2022-08-30T08:21:04.367Z,1009.2
2022-08-30T08:22:20.165Z,1009.2
2022-08-30T08:23:04.335Z,1009.2
2022-08-30T08:24:04.383Z,1009.3
2022-08-30T08:25:04.345Z,1009.2
2022-08-30T08:26:04.353Z,1009.3
2022-08-30T08:27:04.348Z,1009.2
2022-08-30T08:28:04.389Z,1009.3
2022-08-30T08:29:04.355Z,1009.2
2022-08-30T08:30:04.355Z,1009.3
2022-08-30T08:31:04.410Z,1009.2
2022-08-30T08:32:57.833Z,1009.2
2022-08-30T08:33:05.307Z,1009.2
2022-08-30T08:34:04.389Z,1009.2
2022-08-30T08:35:04.391Z,1009.2
2022-08-30T08:36:06.300Z,1009.2
2022-08-30T08:37:04.393Z,1009.2
2022-08-30T08:38:04.354Z,1009.2
2022-08-30T08:39:04.360Z,1009.2
2022-08-30T08:40:04.395Z,1009.2
2022-08-30T08:41:04.353Z,1009.2
2022-08-30T08:42:04.357Z,1009.2
2022-08-30T08:43:04.393Z,1009.2
2022-08-30T08:44:04.361Z,1009.2
2022-08-30T08:45:08.786Z,1009.2
2022-08-30T08:46:04.461Z,1009.2
2022-08-30T08:47:04.363Z,1009.2
2022-08-30T08:48:04.625Z,1009.2
2022-08-30T08:49:04.368Z,1009.2
2022-08-30T08:50:04.375Z,1009.2
2022-08-30T08:51:04.398Z,1009.2
2022-08-30T08:52:04.378Z,1009.2
2022-08-30T08:53:04.368Z,1009.2
2022-08-30T08:54:04.378Z,1009.1
2022-08-30T08:55:04.390Z,1009.2
2022-08-30T08:56:04.371Z,1009.2
2022-08-30T08:57:04.387Z,1009.1
2022-08-30T08:58:04.394Z,1009.1
2022-08-30T08:59:04.367Z,1009.1
2022-08-30T09:00:04.358Z,1009.1
2022-08-30T09:01:04.477Z,1009.1
2022-08-30T09:02:04.468Z,1009.1
2022-08-30T09:03:04.578Z,1009.1
2022-08-30T09:04:04.390Z,1009.1
2022-08-30T09:05:04.419Z,1009.1
2022-08-30T09:06:04.374Z,1009.1
2022-08-30T09:07:04.395Z,1009.1
2022-08-30T09:08:07.748Z,1009.1
2022-08-30T09:09:04.370Z,1009.1
2022-08-30T09:10:04.379Z,1009.1
2022-08-30T09:11:04.356Z,1009.1
2022-08-30T09:12:04.395Z,1009.0
2022-08-30T09:13:04.399Z,1009.1
2022-08-30T09:14:04.378Z,1009.0
2022-08-30T09:15:04.543Z,1009.1
2022-08-30T09:16:04.420Z,1009.0
2022-08-30T09:17:05.317Z,1009.0
2022-08-30T09:18:04.464Z,1009.0
2022-08-30T09:19:04.424Z,1009.0
2022-08-30T09:20:04.370Z,1009.0
2022-08-30T09:21:04.367Z,1009.0
2022-08-30T09:22:04.371Z,1009.0
2022-08-30T09:23:04.367Z,1009.0
2022-08-30T09:24:04.417Z,1009.0
2022-08-30T09:25:04.823Z,1009.0
2022-08-30T09:26:04.380Z,1009.0
2022-08-30T09:27:04.363Z,1009.0
2022-08-30T09:28:04.389Z,1009.0
2022-08-30T09:29:04.381Z,1009.0
2022-08-30T09:30:04.404Z,1009.0
2022-08-30T09:31:05.355Z,1008.9
2022-08-30T09:33:36.419Z,1008.9
2022-08-30T09:34:03.990Z,1008.9
2022-08-30T09:35:04.020Z,1008.9
2022-08-30T09:36:04.485Z,1008.9
2022-08-30T09:37:04.793Z,1008.8
2022-08-30T09:38:03.988Z,1008.9
2022-08-30T09:39:05.290Z,1008.9
2022-08-30T09:40:04.023Z,1008.9
2022-08-30T09:41:03.998Z,1008.9
2022-08-30T09:42:04.109Z,1008.9
2022-08-30T09:43:03.988Z,1008.9
2022-08-30T09:44:04.002Z,1008.9
2022-08-30T09:45:04.016Z,1008.8
2022-08-30T09:46:04.053Z,1008.8
2022-08-30T09:47:03.989Z,1008.8
2022-08-30T09:48:04.099Z,1008.8
2022-08-30T09:49:03.999Z,1008.8
2022-08-30T09:50:03.976Z,1008.8
2022-08-30T09:51:03.991Z,1008.8
2022-08-30T09:52:03.986Z,1008.7
2022-08-30T09:53:03.995Z,1008.7
2022-08-30T09:54:17.774Z,1008.7
2022-08-30T09:55:04.249Z,1008.7
2022-08-30T09:56:03.997Z,1008.7
2022-08-30T09:57:04.032Z,1008.7
2022-08-30T09:58:03.997Z,1008.7
2022-08-30T09:59:03.999Z,1008.7
2022-08-30T10:00:04.228Z,1008.6
2022-08-30T10:01:04.072Z,1008.7
2022-08-30T10:02:04.031Z,1008.6
2022-08-30T10:03:04.232Z,1008.6
2022-08-30T10:04:04.002Z,1008.6
2022-08-30T10:05:04.023Z,1008.6
2022-08-30T10:06:04.030Z,1008.6
2022-08-30T10:07:04.046Z,1008.5
2022-08-30T10:08:04.222Z,1008.5
2022-08-30T10:09:03.998Z,1008.6
2022-08-30T10:10:04.006Z,1008.5
2022-08-30T10:11:04.279Z,1008.5
2022-08-30T10:12:03.997Z,1008.5
2022-08-30T10:13:04.083Z,1008.5
2022-08-30T10:14:04.011Z,1008.5
2022-08-30T10:15:04.003Z,1008.5
2022-08-30T10:16:04.026Z,1008.5
2022-08-30T10:17:04.352Z,1008.5
2022-08-30T10:18:03.990Z,1008.5
2022-08-30T10:19:04.290Z,1008.5
2022-08-30T10:20:04.011Z,1008.5
2022-08-30T10:21:04.034Z,1008.4
2022-08-30T10:22:04.037Z,1008.4
2022-08-30T10:23:04.024Z,1008.4
2022-08-30T10:24:04.014Z,1008.4
2022-08-30T10:25:04.035Z,1008.4
2022-08-30T10:26:04.028Z,1008.4
2022-08-30T10:27:04.009Z,1008.3
2022-08-30T10:28:03.989Z,1008.3
2022-08-30T10:29:04.012Z,1008.3
2022-08-30T10:30:04.024Z,1008.3
2022-08-30T10:31:04.055Z,1008.3
2022-08-30T10:32:04.015Z,1008.3
2022-08-30T10:33:04.027Z,1008.3
2022-08-30T10:34:04.003Z,1008.3
2022-08-30T10:35:04.032Z,1008.2
2022-08-30T10:36:04.029Z,1008.3
2022-08-30T10:37:04.055Z,1008.2
2022-08-30T10:38:04.024Z,1008.2
2022-08-30T10:39:04.003Z,1008.2
2022-08-30T10:40:04.058Z,1008.3
2022-08-30T10:41:04.059Z,1008.2
2022-08-30T10:42:04.000Z,1008.2
2022-08-30T10:43:04.109Z,1008.3
2022-08-30T10:44:04.033Z,1008.2
2022-08-30T10:45:04.045Z,1008.2
2022-08-30T10:46:04.008Z,1008.2
2022-08-30T10:47:04.046Z,1008.2
2022-08-30T10:48:04.062Z,1008.2
2022-08-30T10:49:04.014Z,1008.2
2022-08-30T10:50:04.043Z,1008.2
2022-08-30T10:51:04.014Z,1008.2
2022-08-30T10:52:04.022Z,1008.2
2022-08-30T10:53:04.029Z,1008.2
2022-08-30T10:54:04.005Z,1008.1
2022-08-30T10:55:04.021Z,1008.1
2022-08-30T10:56:04.052Z,1008.1
2022-08-30T10:57:04.055Z,1008.1
2022-08-30T10:58:04.014Z,1008.1
2022-08-30T10:59:04.034Z,1008.1
2022-08-30T11:00:05.877Z,1008.1
2022-08-30T11:01:04.321Z,1008.1
2022-08-30T11:02:04.015Z,1008.0
2022-08-30T11:03:04.023Z,1008.1
2022-08-30T11:04:04.219Z,1008.0
2022-08-30T11:05:04.036Z,1008.1
2022-08-30T11:06:04.075Z,1008.1
2022-08-30T11:07:08.047Z,1008.1
2022-08-30T11:08:04.017Z,1008.0
2022-08-30T11:09:04.088Z,1008.0
2022-08-30T11:10:04.104Z,1008.0
2022-08-30T11:11:04.021Z,1008.0
2022-08-30T11:12:04.071Z,1008.0
2022-08-30T11:13:04.037Z,1008.0
2022-08-30T11:14:05.794Z,1008.0
2022-08-30T11:15:04.028Z,1008.0
2022-08-30T11:16:04.180Z,1008.1
2022-08-30T11:17:04.052Z,1008.0
2022-08-30T11:18:04.061Z,1008.0
2022-08-30T11:19:04.025Z,1007.9
2022-08-30T11:20:04.080Z,1007.9
2022-08-30T11:21:04.064Z,1007.9
2022-08-30T11:22:04.152Z,1007.9
2022-08-30T11:23:04.056Z,1007.9
2022-08-30T11:24:06.616Z,1007.9
2022-08-30T11:25:09.666Z,1007.9
2022-08-30T11:26:04.036Z,1007.9
2022-08-30T11:27:04.068Z,1007.9
2022-08-30T11:28:04.059Z,1007.9
2022-08-30T11:29:04.052Z,1007.8
2022-08-30T11:30:04.206Z,1007.8
2022-08-30T11:31:04.016Z,1007.8
2022-08-30T11:32:04.036Z,1007.8
2022-08-30T11:42:43.415Z,1007.7
2022-08-30T11:43:04.045Z,1007.7
2022-08-30T11:44:04.028Z,1007.7
2022-08-30T11:45:04.028Z,1007.7
2022-08-30T11:46:04.111Z,1007.8
2022-08-30T11:47:05.049Z,1007.7
2022-08-30T11:48:04.402Z,1007.7
2022-08-30T11:49:04.049Z,1007.7
2022-08-30T11:50:11.015Z,1007.7
2022-08-30T11:51:04.027Z,1007.7
2022-08-30T11:52:27.556Z,1007.6
2022-08-30T11:53:04.039Z,1007.7
2022-08-30T11:55:54.387Z,1007.6
2022-08-30T11:56:03.873Z,1007.6
2022-08-30T11:57:03.885Z,1007.6
2022-08-30T11:58:03.943Z,1007.6
2022-08-30T11:59:04.035Z,1007.6
2022-08-30T12:00:03.883Z,1007.6
2022-08-30T12:01:03.912Z,1007.6
2022-08-30T12:02:03.992Z,1007.6
2022-08-30T12:03:04.019Z,1007.6
2022-08-30T12:04:03.876Z,1007.6
2022-08-30T12:05:04.034Z,1007.6
2022-08-30T12:06:04.020Z,1007.6
2022-08-30T12:07:04.009Z,1007.6
2022-08-30T12:08:03.891Z,1007.6
2022-08-30T12:09:03.924Z,1007.6
2022-08-30T12:10:04.041Z,1007.6
2022-08-30T12:11:04.063Z,1007.6
2022-08-30T12:12:03.941Z,1007.5
2022-08-30T12:13:03.909Z,1007.6
2022-08-30T12:14:05.447Z,1007.6
2022-08-30T12:15:03.894Z,1007.6
2022-08-30T12:16:06.412Z,1007.6
2022-08-30T12:17:04.069Z,1007.5
2022-08-30T12:18:03.882Z,1007.5
2022-08-30T12:19:03.899Z,1007.5
2022-08-30T12:20:03.891Z,1007.5
2022-08-30T12:21:03.915Z,1007.4
2022-08-30T12:22:03.899Z,1007.4
2022-08-30T12:23:03.965Z,1007.4
2022-08-30T12:24:04.041Z,1007.5
2022-08-30T12:25:03.893Z,1007.5
2022-08-30T12:26:03.875Z,1007.4
2022-08-30T12:27:03.898Z,1007.4
2022-08-30T12:28:03.903Z,1007.5
2022-08-30T12:29:03.940Z,1007.4
2022-08-30T12:30:04.958Z,1007.5
2022-08-30T12:31:05.428Z,1007.5
2022-08-30T12:32:05.408Z,1007.4
2022-08-30T12:33:03.929Z,1007.4
2022-08-30T12:34:03.909Z,1007.4
2022-08-30T12:35:03.936Z,1007.5
2022-08-30T12:36:03.883Z,1007.5
2022-08-30T12:37:04.504Z,1007.4
2022-08-30T12:38:03.888Z,1007.5
2022-08-30T12:39:05.641Z,1007.4
2022-08-30T12:40:04.054Z,1007.4
2022-08-30T12:41:05.888Z,1007.4
2022-08-30T12:42:03.896Z,1007.4